Time;durP1;ratioP1;P1;durP2;ratioP2;P2;SDS_P1;SDS_P2;PMS_P1;PMS_P2;Temp;Humidity;BMP_temperature;BMP_pressure;BME280_temperature;BME280_humidity;BME280_pressure;Samples;Min_cycle;Max_cycle;Signal;HPM_P1;HPM_P2
2021/01/30 00:00:43;;;;;;;1.15;0.60;;;19.50;44.60;;;;;;5065954;28;20032;-65
2021/01/30 00:03:10;;;;;;;1.90;0.75;;;19.50;44.60;;;;;;5066006;28;20523;-65
2021/01/30 00:05:35;;;;;;;1.20;0.50;;;19.60;44.60;;;;;;5065307;28;20118;-65
2021/01/30 00:08:01;;;;;;;0.80;0.40;;;19.60;44.40;;;;;;5065400;28;20013;-65
2021/01/30 00:10:26;;;;;;;0.73;0.45;;;19.60;44.50;;;;;;5065904;28;20091;-66
2021/01/30 00:12:52;;;;;;;0.77;0.52;;;19.60;44.40;;;;;;5065951;28;20028;-65
2021/01/30 00:15:21;;;;;;;1.05;0.40;;;19.60;44.40;;;;;;5065590;28;20025;-65
2021/01/30 00:17:47;;;;;;;0.95;0.68;;;19.60;44.40;;;;;;5070022;28;20099;-65
2021/01/30 00:20:13;;;;;;;0.88;0.50;;;19.60;44.40;;;;;;5069149;28;20029;-65
2021/01/30 00:22:39;;;;;;;1.15;0.50;;;19.60;44.30;;;;;;5069802;28;20063;-65
2021/01/30 00:25:05;;;;;;;1.45;0.73;;;19.60;44.30;;;;;;5069429;28;20522;-64
2021/01/30 00:27:30;;;;;;;1.45;0.50;;;19.60;44.40;;;;;;5068935;28;20411;-65
2021/01/30 00:29:56;;;;;;;1.80;0.40;;;19.60;44.40;;;;;;5069938;28;20036;-65
2021/01/30 00:32:21;;;;;;;1.23;0.60;;;19.60;44.40;;;;;;5069473;28;20290;-65
2021/01/30 00:34:47;;;;;;;0.60;0.47;;;19.60;44.40;;;;;;5069377;28;20063;-65
2021/01/30 00:37:22;;;;;;;0.80;0.60;;;19.60;44.50;;;;;;5068753;28;20525;-65
2021/01/30 00:39:49;;;;;;;1.23;0.60;;;19.60;44.50;;;;;;5069446;28;20061;-65
2021/01/30 00:42:14;;;;;;;0.68;0.63;;;19.60;44.50;;;;;;5069574;28;20751;-64
2021/01/30 00:44:40;;;;;;;1.52;0.50;;;19.50;44.40;;;;;;5069385;28;20115;-65
2021/01/30 00:47:06;;;;;;;0.73;0.50;;;19.60;44.50;;;;;;5068772;28;20096;-64
2021/01/30 00:49:31;;;;;;;0.55;0.50;;;19.50;44.50;;;;;;5068849;28;20479;-65
2021/01/30 00:51:57;;;;;;;0.40;0.40;;;19.50;44.60;;;;;;5069890;28;20105;-65
2021/01/30 00:54:22;;;;;;;0.55;0.38;;;19.50;44.60;;;;;;5068653;28;20429;-65
2021/01/30 00:56:49;;;;;;;0.70;0.50;;;19.50;44.60;;;;;;5067307;28;20036;-65
2021/01/30 00:59:15;;;;;;;0.47;0.40;;;19.50;44.60;;;;;;5067746;28;20027;-65
2021/01/30 01:01:40;;;;;;;0.32;0.32;;;19.50;44.60;;;;;;5049662;28;20397;-65
2021/01/30 01:04:06;;;;;;;1.88;0.40;;;19.50;44.70;;;;;;5067586;28;20040;-65
2021/01/30 01:06:32;;;;;;;0.73;0.30;;;19.50;44.70;;;;;;5067565;28;20028;-66
2021/01/30 01:08:57;;;;;;;0.30;0.28;;;19.40;44.60;;;;;;5049549;28;20032;-65
2021/01/30 01:11:23;;;;;;;1.13;0.40;;;19.40;44.70;;;;;;5067456;28;20035;-65
2021/01/30 01:13:48;;;;;;;0.63;0.50;;;19.40;44.80;;;;;;5049471;28;20380;-65
2021/01/30 01:16:14;;;;;;;1.80;0.43;;;19.40;44.80;;;;;;5066777;28;20036;-65
2021/01/30 01:18:39;;;;;;;1.35;0.50;;;19.40;44.80;;;;;;5067270;28;20108;-65
2021/01/30 01:21:05;;;;;;;0.47;0.35;;;19.40;44.80;;;;;;5067388;28;20059;-64
2021/01/30 01:23:30;;;;;;;1.17;0.50;;;19.40;44.80;;;;;;5067122;28;20074;-65
2021/01/30 01:25:56;;;;;;;0.82;0.60;;;19.40;44.80;;;;;;5049391;28;20462;-64
2021/01/30 01:28:21;;;;;;;0.75;0.32;;;19.40;44.90;;;;;;5066702;28;21884;-65
2021/01/30 01:30:47;;;;;;;1.13;0.43;;;19.30;44.80;;;;;;5067255;28;20035;-64
2021/01/30 01:33:12;;;;;;;0.55;0.30;;;19.30;44.80;;;;;;5066969;28;20032;-65
2021/01/30 01:35:38;;;;;;;1.10;0.60;;;19.30;44.90;;;;;;5067033;28;20032;-65
2021/01/30 01:38:03;;;;;;;0.77;0.40;;;19.30;44.90;;;;;;5066954;28;20036;-65
2021/01/30 01:40:34;;;;;;;1.13;0.40;;;19.30;44.90;;;;;;5067224;28;20037;-64
2021/01/30 01:43:04;;;;;;;0.60;0.30;;;19.30;44.90;;;;;;5067008;28;20407;-65
2021/01/30 01:45:30;;;;;;;0.52;0.28;;;19.30;45.00;;;;;;5066984;28;20045;-64
2021/01/30 01:47:55;;;;;;;2.08;0.40;;;19.30;45.00;;;;;;5066227;28;20081;-64
2021/01/30 01:50:39;;;;;;;0.98;0.40;;;19.30;45.00;;;;;;5048247;28;20564;-65
2021/01/30 01:53:17;;;;;;;0.68;0.40;;;19.30;45.00;;;;;;5048636;28;20028;-65
2021/01/30 01:55:45;;;;;;;1.17;0.40;;;19.20;44.90;;;;;;5016044;28;512749;-64
2021/01/30 01:58:11;;;;;;;0.32;0.30;;;19.30;45.00;;;;;;5033668;28;20120;-64
2021/01/30 02:00:36;;;;;;;0.82;0.43;;;19.30;45.00;;;;;;5050501;28;20108;-65
2021/01/30 02:03:02;;;;;;;0.43;0.32;;;19.20;44.90;;;;;;5049725;28;20020;-65
2021/01/30 02:05:29;;;;;;;1.58;0.40;;;19.20;45.00;;;;;;5049845;28;20688;-64
2021/01/30 02:07:58;;;;;;;1.25;0.40;;;19.20;45.00;;;;;;5040676;28;20562;-65
2021/01/30 02:10:24;;;;;;;0.85;0.40;;;19.20;45.00;;;;;;5049989;28;20032;-66
2021/01/30 02:12:50;;;;;;;0.63;0.40;;;19.20;45.00;;;;;;5067751;28;20495;-64
2021/01/30 02:15:16;;;;;;;1.75;0.40;;;19.10;45.00;;;;;;5048909;28;20074;-64
2021/01/30 02:17:43;;;;;;;0.45;0.20;;;19.10;45.00;;;;;;5033098;28;20032;-65
2021/01/30 02:20:27;;;;;;;0.80;0.35;;;19.00;45.00;;;;;;5049546;28;20024;-63
2021/01/30 02:23:30;;;;;;;0.63;0.30;;;19.10;45.10;;;;;;5041768;28;20025;-65
2021/01/30 02:26:13;;;;;;;0.50;0.40;;;19.00;45.10;;;;;;5058383;28;21706;-65
2021/01/30 02:28:50;;;;;;;2.05;0.40;;;19.00;45.10;;;;;;5049876;28;20080;-65
2021/01/30 02:31:54;;;;;;;0.45;0.20;;;19.00;45.10;;;;;;5048769;28;20445;-65
2021/01/30 02:34:37;;;;;;;0.25;0.25;;;18.90;45.10;;;;;;5022068;28;20036;-65
2021/01/30 02:37:22;;;;;;;0.43;0.40;;;18.90;45.10;;;;;;5033731;28;20036;-65
2021/01/30 02:39:54;;;;;;;0.38;0.30;;;18.90;45.20;;;;;;5048854;28;20099;-64
2021/01/30 02:42:22;;;;;;;0.75;0.20;;;18.90;45.20;;;;;;5048835;28;20032;-66
2021/01/30 02:44:53;;;;;;;0.30;0.30;;;18.90;45.20;;;;;;5048988;28;20115;-65
2021/01/30 02:47:18;;;;;;;1.27;0.35;;;18.90;45.70;;;;;;5041539;28;20530;-65
2021/01/30 02:49:46;;;;;;;0.85;0.20;;;18.80;45.10;;;;;;5049388;28;20048;-65
2021/01/30 02:52:13;;;;;;;0.70;0.40;;;18.90;45.20;;;;;;5048668;28;20108;-66
2021/01/30 02:54:39;;;;;;;0.75;0.25;;;18.90;45.20;;;;;;5032641;28;20500;-65
2021/01/30 02:57:09;;;;;;;0.60;0.22;;;18.80;45.10;;;;;;5048553;28;20103;-65
2021/01/30 02:59:38;;;;;;;0.50;0.40;;;18.90;45.20;;;;;;5032260;28;20491;-65
2021/01/30 03:02:04;;;;;;;1.20;0.40;;;18.80;45.10;;;;;;5066516;28;20028;-65
2021/01/30 03:04:29;;;;;;;0.60;0.30;;;18.80;45.10;;;;;;5066961;28;20028;-65
2021/01/30 03:07:16;;;;;;;0.52;0.20;;;18.90;45.20;;;;;;5066310;28;20567;-62
2021/01/30 03:10:06;;;;;;;0.35;0.30;;;18.90;45.10;;;;;;5038479;28;20111;-64
2021/01/30 03:12:41;;;;;;;0.40;0.32;;;18.80;45.10;;;;;;5044550;28;20020;-65
2021/01/30 03:15:30;;;;;;;0.20;0.20;;;18.90;45.10;;;;;;5048836;28;20039;-65
2021/01/30 03:17:56;;;;;;;0.30;0.28;;;18.90;45.00;;;;;;5018889;28;20575;-64
2021/01/30 03:20:21;;;;;;;0.30;0.20;;;18.90;45.00;;;;;;5032157;28;20115;-65
2021/01/30 03:22:47;;;;;;;0.50;0.50;;;18.90;45.00;;;;;;5032155;28;20510;-65
2021/01/30 03:25:18;;;;;;;0.20;0.20;;;18.90;45.00;;;;;;5031790;28;20028;-64
2021/01/30 03:27:44;;;;;;;1.90;0.35;;;19.00;44.90;;;;;;5047589;28;20116;-65
2021/01/30 03:30:10;;;;;;;0.80;0.30;;;19.00;44.90;;;;;;5048504;28;20636;-64
2021/01/30 03:32:36;;;;;;;0.85;0.30;;;19.00;44.80;;;;;;5066239;28;20055;-64
2021/01/30 03:35:03;;;;;;;0.40;0.20;;;19.00;44.80;;;;;;5065998;28;20522;-65
2021/01/30 03:37:28;;;;;;;0.52;0.30;;;19.10;44.80;;;;;;5065424;28;20029;-65
2021/01/30 03:39:54;;;;;;;0.30;0.20;;;19.10;44.70;;;;;;5066174;28;20028;-64
2021/01/30 03:42:19;;;;;;;0.88;0.40;;;19.10;44.60;;;;;;5066122;28;20032;-65
2021/01/30 03:44:45;;;;;;;1.27;0.30;;;19.20;44.60;;;;;;5065999;28;20036;-65
2021/01/30 03:47:10;;;;;;;0.80;0.32;;;19.20;44.60;;;;;;5065658;28;20024;-64
2021/01/30 03:49:36;;;;;;;0.32;0.20;;;19.20;44.50;;;;;;5065963;28;20055;-62
2021/01/30 03:52:02;;;;;;;0.52;0.40;;;19.20;44.40;;;;;;5066217;28;20059;-65
2021/01/30 03:54:27;;;;;;;0.50;0.30;;;19.20;44.30;;;;;;5047784;28;20193;-64
2021/01/30 03:56:53;;;;;;;0.28;0.28;;;19.30;44.40;;;;;;5064982;28;20125;-66
2021/01/30 03:59:21;;;;;;;0.30;0.20;;;19.30;44.30;;;;;;5065603;28;20033;-66
2021/01/30 04:01:47;;;;;;;0.98;0.40;;;19.30;44.30;;;;;;5047817;28;20104;-66
2021/01/30 04:04:12;;;;;;;0.40;0.30;;;19.30;44.20;;;;;;5047892;28;20104;-65
2021/01/30 04:06:38;;;;;;;1.00;0.40;;;19.40;44.20;;;;;;5065491;28;20029;-66
2021/01/30 04:09:04;;;;;;;1.23;0.40;;;19.30;44.20;;;;;;5065746;28;20040;-66
2021/01/30 04:11:30;;;;;;;1.50;0.50;;;19.30;44.20;;;;;;5065573;28;20162;-65
2021/01/30 04:13:56;;;;;;;1.02;0.55;;;19.30;44.20;;;;;;5047765;28;20495;-66
2021/01/30 04:16:22;;;;;;;0.45;0.28;;;19.30;44.20;;;;;;5065036;28;20028;-65
2021/01/30 04:18:48;;;;;;;0.60;0.40;;;19.30;44.30;;;;;;5065712;28;20115;-65
2021/01/30 04:21:13;;;;;;;1.98;0.40;;;19.40;44.30;;;;;;5065294;28;20103;-66
2021/01/30 04:23:39;;;;;;;1.70;0.25;;;19.30;44.30;;;;;;5065652;28;20056;-65
2021/01/30 04:26:04;;;;;;;0.50;0.30;;;19.30;44.30;;;;;;5065277;28;20046;-65
2021/01/30 04:28:30;;;;;;;0.30;0.20;;;19.30;44.40;;;;;;5065883;28;20526;-65
2021/01/30 04:30:55;;;;;;;1.13;0.30;;;19.30;44.40;;;;;;5065815;28;20040;-65
2021/01/30 04:33:21;;;;;;;1.30;0.40;;;19.30;44.40;;;;;;5065410;28;20028;-65
2021/01/30 04:35:46;;;;;;;0.50;0.40;;;19.20;44.40;;;;;;5064927;28;20043;-65
2021/01/30 04:38:12;;;;;;;0.60;0.30;;;19.30;44.50;;;;;;5065230;28;20079;-64
2021/01/30 04:40:41;;;;;;;0.40;0.30;;;19.30;44.40;;;;;;5065327;28;20033;-65
2021/01/30 04:43:26;;;;;;;0.85;0.32;;;19.20;44.40;;;;;;5065696;28;20028;-66
2021/01/30 04:46:16;;;;;;;0.65;0.30;;;19.20;44.40;;;;;;5026716;28;20116;-65
2021/01/30 04:48:51;;;;;;;0.45;0.32;;;19.20;44.40;;;;;;5047361;28;20043;-65
2021/01/30 04:51:41;;;;;;;1.80;0.32;;;19.20;44.40;;;;;;5048651;28;20024;-63
2021/01/30 04:54:35;;;;;;;2.05;0.38;;;19.20;44.40;;;;;;5058048;28;20111;-65
2021/01/30 04:57:08;;;;;;;2.25;0.30;;;19.20;44.50;;;;;;5046790;28;20028;-66
2021/01/30 04:59:43;;;;;;;0.55;0.30;;;19.10;44.40;;;;;;5039951;28;20024;-65
2021/01/30 05:02:12;;;;;;;0.40;0.30;;;19.10;44.40;;;;;;5048546;28;20021;-64
2021/01/30 05:04:48;;;;;;;0.30;0.20;;;19.20;44.50;;;;;;5056164;28;20060;-66
2021/01/30 05:07:17;;;;;;;1.17;0.32;;;19.10;44.40;;;;;;5065506;28;20715;-63
2021/01/30 05:09:47;;;;;;;2.35;0.50;;;19.10;44.50;;;;;;5068295;28;20032;-66
2021/01/30 05:12:26;;;;;;;0.43;0.32;;;19.10;44.50;;;;;;5034369;28;20696;-66
2021/01/30 05:15:11;;;;;;;1.77;0.35;;;19.10;44.50;;;;;;5044818;28;20016;-66
2021/01/30 05:17:43;;;;;;;0.40;0.30;;;19.10;44.50;;;;;;5035152;28;20433;-65
2021/01/30 05:20:11;;;;;;;0.47;0.40;;;19.10;44.50;;;;;;5050521;28;20043;-65
2021/01/30 05:22:41;;;;;;;1.65;0.40;;;19.00;44.50;;;;;;5051456;28;20444;-65
2021/01/30 05:25:10;;;;;;;1.00;0.43;;;19.10;44.50;;;;;;5033606;28;20036;-66
2021/01/30 05:27:42;;;;;;;0.77;0.50;;;19.10;44.50;;;;;;5050453;28;20649;-64
2021/01/30 05:30:35;;;;;;;1.02;0.60;;;19.10;44.50;;;;;;5050295;28;20561;-62
2021/01/30 05:33:26;;;;;;;0.55;0.50;;;19.10;44.50;;;;;;5051402;28;20029;-66
2021/01/30 05:36:14;;;;;;;0.82;0.82;;;19.10;44.50;;;;;;5040463;28;20025;-63
2021/01/30 05:38:51;;;;;;;1.63;0.70;;;19.00;44.40;;;;;;5061048;28;20039;-66
2021/01/30 05:41:36;;;;;;;0.55;0.50;;;19.00;44.50;;;;;;5068245;28;20024;-65
2021/01/30 05:44:06;;;;;;;0.93;0.68;;;19.00;44.40;;;;;;5051382;28;20119;-66
2021/01/30 05:46:32;;;;;;;1.10;0.80;;;19.00;44.40;;;;;;5034290;28;20013;-64
2021/01/30 05:48:59;;;;;;;1.17;0.63;;;19.00;44.40;;;;;;5050031;28;20103;-66
2021/01/30 05:51:42;;;;;;;0.90;0.68;;;19.00;44.40;;;;;;5050001;28;20081;-65
2021/01/30 05:54:08;;;;;;;1.70;0.90;;;19.00;44.40;;;;;;5041113;28;20550;-65
2021/01/30 05:56:38;;;;;;;1.45;0.80;;;19.00;44.40;;;;;;5063271;28;20040;-66
2021/01/30 05:59:05;;;;;;;0.70;0.52;;;19.00;44.40;;;;;;5067826;28;20111;-66
2021/01/30 06:01:31;;;;;;;0.73;0.60;;;19.00;44.30;;;;;;5050136;28;20020;-66
2021/01/30 06:04:08;;;;;;;0.68;0.60;;;19.00;44.30;;;;;;5067697;28;20601;-65
2021/01/30 06:06:40;;;;;;;0.82;0.63;;;19.00;44.30;;;;;;5067338;28;20035;-66
2021/01/30 06:09:12;;;;;;;0.82;0.60;;;18.90;44.30;;;;;;5049574;28;20040;-66
2021/01/30 06:11:46;;;;;;;0.98;0.77;;;19.00;44.30;;;;;;5050048;28;20039;-66
2021/01/30 06:14:25;;;;;;;1.60;0.90;;;19.00;44.30;;;;;;5048661;28;20436;-64
2021/01/30 06:16:58;;;;;;;0.80;0.70;;;19.00;44.30;;;;;;5049640;28;20486;-65
2021/01/30 06:19:24;;;;;;;0.80;0.80;;;19.00;44.20;;;;;;5067201;28;20538;-65
2021/01/30 06:22:09;;;;;;;1.95;1.00;;;19.00;44.30;;;;;;5049166;28;20055;-65
2021/01/30 06:24:34;;;;;;;1.25;1.00;;;19.00;44.20;;;;;;5046582;28;20467;-65
2021/01/30 06:27:07;;;;;;;1.17;0.90;;;19.00;44.20;;;;;;5065188;28;20024;-66
2021/01/30 06:29:38;;;;;;;2.22;1.40;;;19.00;44.20;;;;;;5049146;28;20494;-66
2021/01/30 06:32:20;;;;;;;1.45;1.15;;;19.00;44.20;;;;;;5049232;28;20040;-66
2021/01/30 06:34:54;;;;;;;2.45;1.13;;;19.00;44.20;;;;;;5033753;28;20027;-65
2021/01/30 06:37:44;;;;;;;1.52;1.35;;;18.90;44.10;;;;;;5032817;28;20036;-66
2021/01/30 06:40:18;;;;;;;1.95;1.48;;;19.00;44.10;;;;;;5039033;28;20056;-66
2021/01/30 06:42:44;;;;;;;1.30;1.15;;;18.90;44.00;;;;;;5067342;28;20099;-66
2021/01/30 06:45:10;;;;;;;2.08;1.55;;;18.90;44.00;;;;;;5049354;28;20040;-65
2021/01/30 06:47:46;;;;;;;1.60;1.40;;;18.90;44.00;;;;;;5048269;28;20025;-66
2021/01/30 06:50:39;;;;;;;2.45;1.88;;;18.90;44.00;;;;;;5067304;28;20059;-66
2021/01/30 06:53:15;;;;;;;2.15;1.45;;;18.90;44.00;;;;;;5049830;28;20044;-66
2021/01/30 06:55:41;;;;;;;1.55;1.45;;;18.90;44.00;;;;;;5066812;28;20063;-65
2021/01/30 06:58:06;;;;;;;2.33;1.60;;;18.90;43.90;;;;;;5066562;28;20032;-65
2021/01/30 07:00:34;;;;;;;1.70;1.60;;;18.90;43.90;;;;;;5067593;28;20090;-66
2021/01/30 07:03:06;;;;;;;2.28;1.77;;;18.90;43.90;;;;;;5049023;28;20023;-66
2021/01/30 07:05:44;;;;;;;2.47;1.70;;;18.90;44.00;;;;;;5031636;28;20021;-65
2021/01/30 07:08:36;;;;;;;1.58;1.48;;;18.90;44.00;;;;;;5048972;28;20529;-63
2021/01/30 07:11:13;;;;;;;3.20;1.80;;;18.90;44.00;;;;;;5061310;28;20616;-65
2021/01/30 07:13:48;;;;;;;2.03;1.65;;;19.00;44.10;;;;;;5066131;28;20036;-65
2021/01/30 07:16:43;;;;;;;1.85;1.60;;;19.00;44.00;;;;;;5032962;28;20075;-66
2021/01/30 07:19:50;;;;;;;2.05;1.60;;;19.00;44.00;;;;;;5033276;28;20041;-66
2021/01/30 07:22:28;;;;;;;2.67;1.85;;;19.00;44.00;;;;;;5048636;28;20662;-65
2021/01/30 07:25:13;;;;;;;2.38;1.90;;;19.00;43.90;;;;;;5039119;28;20028;-65
2021/01/30 07:27:47;;;;;;;1.98;1.65;;;19.00;43.90;;;;;;5031677;28;20013;-64
2021/01/30 07:30:28;;;;;;;2.05;1.85;;;19.00;43.90;;;;;;5032765;28;20054;-66
2021/01/30 07:32:59;;;;;;;3.15;2.05;;;19.00;43.90;;;;;;5047922;28;20849;-66
2021/01/30 07:35:27;;;;;;;2.17;1.95;;;19.00;43.90;;;;;;5047506;28;20021;-66
2021/01/30 07:37:55;;;;;;;2.30;2.00;;;19.00;43.80;;;;;;5048044;28;20062;-66
2021/01/30 07:40:37;;;;;;;2.33;1.80;;;19.00;43.80;;;;;;5048221;28;20031;-66
2021/01/30 07:43:16;;;;;;;2.22;1.92;;;19.00;43.80;;;;;;5050207;28;20028;-65
2021/01/30 07:46:10;;;;;;;2.33;1.90;;;19.00;43.70;;;;;;5047857;28;20048;-66
2021/01/30 07:48:53;;;;;;;2.97;2.25;;;19.00;43.70;;;;;;5049631;28;20032;-66
2021/01/30 07:51:28;;;;;;;2.20;1.85;;;19.00;43.70;;;;;;5040405;28;20104;-67
2021/01/30 07:53:54;;;;;;;2.22;2.03;;;19.00;43.60;;;;;;5030793;28;20032;-70
2021/01/30 07:56:19;;;;;;;1.92;1.65;;;19.00;44.30;;;;;;5040002;28;20104;-67
2021/01/30 07:59:14;;;;;;;4.57;2.00;;;19.00;43.60;;;;;;5065858;28;20536;-68
2021/01/30 08:02:02;;;;;;;2.75;2.10;;;19.00;43.70;;;;;;5044089;28;20040;-65
2021/01/30 08:04:59;;;;;;;3.13;1.88;;;19.00;43.70;;;;;;5048636;28;20099;-65
2021/01/30 08:07:35;;;;;;;2.30;1.90;;;19.00;43.70;;;;;;5042750;28;20103;-66
2021/01/30 08:10:10;;;;;;;3.58;1.70;;;19.00;43.70;;;;;;5047216;28;20036;-64
2021/01/30 08:12:54;;;;;;;4.43;1.97;;;19.00;43.70;;;;;;5047912;28;20017;-65
2021/01/30 08:15:25;;;;;;;3.25;1.85;;;19.00;43.70;;;;;;5045731;28;20309;-65
2021/01/30 08:17:51;;;;;;;2.58;1.52;;;19.00;43.80;;;;;;5045303;28;20032;-64
2021/01/30 08:20:28;;;;;;;3.67;2.40;;;19.00;43.70;;;;;;5063577;28;20021;-67
2021/01/30 08:23:20;;;;;;;4.00;1.85;;;19.00;43.70;;;;;;5031660;28;20112;-65
2021/01/30 08:26:06;;;;;;;3.60;2.08;;;19.00;43.80;;;;;;5049462;28;20103;-65
2021/01/30 08:29:12;;;;;;;3.17;2.15;;;19.00;43.80;;;;;;5046337;28;20105;-64
2021/01/30 08:31:43;;;;;;;3.10;1.88;;;19.00;43.70;;;;;;5038638;28;20504;-66
2021/01/30 08:34:18;;;;;;;4.43;1.83;;;19.00;43.80;;;;;;5047126;28;20024;-65
2021/01/30 08:36:47;;;;;;;3.90;2.03;;;19.00;43.90;;;;;;5065514;28;20119;-65
2021/01/30 08:39:19;;;;;;;3.08;1.98;;;19.00;44.00;;;;;;5050824;28;20312;-66
2021/01/30 08:42:06;;;;;;;5.25;2.40;;;19.00;44.10;;;;;;5051954;28;20017;-66
2021/01/30 08:44:35;;;;;;;6.90;2.17;;;19.00;44.20;;;;;;5068988;28;20082;-67
2021/01/30 08:47:14;;;;;;;3.55;1.75;;;19.00;44.30;;;;;;5051501;28;20138;-67
2021/01/30 08:49:40;;;;;;;7.07;2.17;;;19.00;44.30;;;;;;5070091;28;20541;-67
2021/01/30 08:52:11;;;;;;;6.30;2.72;;;19.00;44.30;;;;;;5052051;28;20056;-66
2021/01/30 08:54:38;;;;;;;5.95;2.28;;;19.00;44.30;;;;;;5069240;28;20115;-67
2021/01/30 08:57:05;;;;;;;3.78;2.50;;;19.00;44.30;;;;;;5051458;28;20078;-65
2021/01/30 08:59:50;;;;;;;5.90;2.22;;;18.90;44.30;;;;;;5032927;28;20031;-67
2021/01/30 09:02:38;;;;;;;6.40;2.47;;;18.90;44.20;;;;;;5049220;28;20035;-67
2021/01/30 09:05:04;;;;;;;7.50;2.40;;;19.00;44.30;;;;;;5057593;28;20414;-69
2021/01/30 09:07:42;;;;;;;4.78;2.58;;;19.00;44.30;;;;;;5068554;28;20032;-67
2021/01/30 09:10:33;;;;;;;8.20;2.92;;;19.00;44.30;;;;;;5068653;28;20024;-66
2021/01/30 09:13:06;;;;;;;5.47;2.42;;;19.00;44.30;;;;;;5067940;28;20067;-66
2021/01/30 09:15:40;;;;;;;6.13;2.65;;;19.00;44.20;;;;;;5068680;28;20021;-66
2021/01/30 09:18:31;;;;;;;9.73;2.60;;;19.00;44.20;;;;;;5050033;28;20028;-66
2021/01/30 09:21:16;;;;;;;12.75;3.03;;;19.00;44.20;;;;;;5050736;28;20119;-65
2021/01/30 09:23:47;;;;;;;5.03;2.47;;;18.90;44.10;;;;;;5043441;28;20032;-68
2021/01/30 09:26:24;;;;;;;2.88;2.10;;;18.90;44.10;;;;;;5068299;28;20024;-66
2021/01/30 09:28:55;;;;;;;2.85;2.22;;;18.90;44.10;;;;;;5050523;28;20025;-66
2021/01/30 09:31:20;;;;;;;6.75;2.40;;;18.90;44.20;;;;;;5050151;28;20017;-67
2021/01/30 09:34:00;;;;;;;5.55;2.75;;;18.80;44.10;;;;;;5050099;28;20025;-67
2021/01/30 09:36:30;;;;;;;5.93;2.28;;;18.80;44.10;;;;;;5033649;28;20035;-67
2021/01/30 09:38:59;;;;;;;4.95;2.53;;;18.80;44.10;;;;;;5050600;28;20028;-66
2021/01/30 09:41:31;;;;;;;6.70;2.20;;;18.80;44.10;;;;;;5067712;28;20675;-67
2021/01/30 09:44:25;;;;;;;3.90;2.13;;;18.70;44.10;;;;;;5067803;28;20121;-66
2021/01/30 09:46:52;;;;;;;5.00;2.20;;;18.70;44.10;;;;;;5067126;28;20020;-66
2021/01/30 09:49:23;;;;;;;4.13;2.63;;;18.70;44.00;;;;;;5049578;28;20647;-65
2021/01/30 09:51:50;;;;;;;6.88;2.35;;;18.70;44.00;;;;;;5038459;28;20036;-65
2021/01/30 09:54:16;;;;;;;6.35;2.38;;;18.70;43.90;;;;;;5028945;28;20504;-64
2021/01/30 09:56:41;;;;;;;4.05;2.63;;;18.80;43.90;;;;;;5049244;28;20547;-67
2021/01/30 09:59:07;;;;;;;5.30;2.75;;;18.80;43.90;;;;;;5049917;28;20103;-66
2021/01/30 10:01:43;;;;;;;3.83;2.30;;;18.80;43.90;;;;;;5048236;28;20032;-64
2021/01/30 10:04:17;;;;;;;5.50;2.97;;;18.80;43.90;;;;;;5067692;28;20112;-65
2021/01/30 10:06:45;;;;;;;5.53;3.13;;;18.80;43.90;;;;;;5064671;28;20437;-68
2021/01/30 10:09:16;;;;;;;7.82;3.17;;;18.80;43.90;;;;;;5050480;28;20024;-67
2021/01/30 10:11:43;;;;;;;8.40;4.38;;;18.90;44.00;;;;;;5068290;28;20029;-69
2021/01/30 10:14:09;;;;;;;20.40;7.95;;;18.90;44.00;;;;;;5049741;28;20158;-67
2021/01/30 10:16:35;;;;;;;22.55;10.02;;;18.90;44.00;;;;;;5050210;28;20111;-67
2021/01/30 10:19:06;;;;;;;28.02;12.88;;;19.00;44.10;;;;;;5050481;28;20436;-66
2021/01/30 10:21:39;;;;;;;39.67;16.55;;;19.00;44.10;;;;;;5068019;28;20067;-67
2021/01/30 10:24:19;;;;;;;41.22;17.40;;;19.10;44.20;;;;;;5067915;28;20692;-66
2021/01/30 10:26:45;;;;;;;33.50;17.10;;;19.00;44.20;;;;;;5067945;28;20025;-65
2021/01/30 10:29:13;;;;;;;42.30;18.08;;;19.10;44.20;;;;;;5048358;28;20028;-66
2021/01/30 10:31:47;;;;;;;39.85;17.02;;;19.10;44.20;;;;;;5049246;28;20446;-67
2021/01/30 10:34:32;;;;;;;37.42;17.25;;;19.10;44.20;;;;;;5049172;28;20036;-67
2021/01/30 10:37:19;;;;;;;41.08;19.08;;;19.20;44.30;;;;;;5048684;28;20016;-67
2021/01/30 10:39:50;;;;;;;34.28;16.42;;;19.20;44.30;;;;;;5050344;28;20056;-65
2021/01/30 10:42:21;;;;;;;36.50;17.15;;;19.20;44.30;;;;;;5049036;28;20044;-66
2021/01/30 10:44:48;;;;;;;34.92;15.95;;;19.20;44.30;;;;;;5041373;28;20044;-65
2021/01/30 10:47:13;;;;;;;29.88;13.85;;;19.20;44.30;;;;;;5048791;28;20754;-66
2021/01/30 10:49:38;;;;;;;28.75;13.60;;;19.20;44.40;;;;;;5066578;28;20107;-62
2021/01/30 10:52:09;;;;;;;29.98;14.50;;;19.30;44.50;;;;;;5048478;28;20024;-64
2021/01/30 10:54:36;;;;;;;24.98;12.98;;;19.30;44.50;;;;;;5016785;28;20037;-66
2021/01/30 10:57:18;;;;;;;21.55;12.07;;;19.30;44.60;;;;;;5048106;28;20024;-67
2021/01/30 10:59:52;;;;;;;20.45;10.55;;;19.30;44.60;;;;;;5037779;28;20070;-65
2021/01/30 11:02:34;;;;;;;19.02;10.00;;;19.30;44.70;;;;;;5031312;28;20044;-65
2021/01/30 11:05:09;;;;;;;20.02;9.30;;;19.30;44.60;;;;;;5065967;28;20571;-68
2021/01/30 11:07:45;;;;;;;21.42;9.90;;;19.30;44.70;;;;;;5064656;28;20368;-66
2021/01/30 11:10:21;;;;;;;22.88;10.18;;;19.30;44.80;;;;;;5066403;28;20454;-67
2021/01/30 11:12:46;;;;;;;18.17;8.95;;;19.30;44.80;;;;;;5048514;28;20032;-68
2021/01/30 11:15:18;;;;;;;18.48;8.75;;;19.20;44.90;;;;;;5048889;28;20021;-68
2021/01/30 11:17:45;;;;;;;14.75;8.23;;;19.20;45.00;;;;;;5048525;28;20236;-65
2021/01/30 11:20:11;;;;;;;22.95;8.82;;;19.20;45.10;;;;;;5032198;28;20025;-66
2021/01/30 11:22:36;;;;;;;25.48;9.35;;;19.20;45.30;;;;;;5066360;28;20060;-66
2021/01/30 11:25:04;;;;;;;32.92;10.07;;;19.10;45.60;;;;;;5066500;28;20487;-66
2021/01/30 11:27:33;;;;;;;28.15;9.75;;;19.10;45.70;;;;;;5065853;28;20052;-66
2021/01/30 11:30:12;;;;;;;33.00;11.98;;;19.10;45.90;;;;;;5065588;28;20024;-66
2021/01/30 11:32:37;;;;;;;31.02;11.10;;;19.10;46.00;;;;;;5066360;28;20715;-67
2021/01/30 11:35:04;;;;;;;38.28;11.77;;;19.00;46.10;;;;;;5065933;28;20028;-66
2021/01/30 11:37:29;;;;;;;32.05;11.00;;;19.00;46.20;;;;;;5065299;28;20078;-67
2021/01/30 11:39:54;;;;;;;29.75;10.45;;;19.00;46.30;;;;;;5022431;28;20049;-66
2021/01/30 11:42:20;;;;;;;22.45;9.10;;;19.00;46.30;;;;;;5047012;28;20106;-66
2021/01/30 11:44:46;;;;;;;27.00;9.60;;;19.00;46.30;;;;;;5039771;28;20458;-67
2021/01/30 11:47:11;;;;;;;23.63;9.20;;;19.00;46.30;;;;;;5065321;28;20111;-66
2021/01/30 11:49:37;;;;;;;15.90;8.10;;;19.00;46.40;;;;;;5037437;28;20045;-66
2021/01/30 11:52:03;;;;;;;23.60;10.02;;;19.00;46.40;;;;;;5037614;28;20129;-63
2021/01/30 11:54:28;;;;;;;23.45;8.10;;;19.00;46.40;;;;;;5034056;28;20611;-66
2021/01/30 11:56:54;;;;;;;23.83;8.77;;;19.00;46.50;;;;;;5062540;28;20105;-66
2021/01/30 11:59:19;;;;;;;20.48;7.53;;;19.00;46.40;;;;;;5063364;28;20128;-65
2021/01/30 12:01:45;;;;;;;18.02;7.93;;;19.00;46.40;;;;;;5057369;28;20495;-66
2021/01/30 12:04:10;;;;;;;19.38;7.57;;;19.00;46.40;;;;;;5044538;28;20035;-66
2021/01/30 12:06:36;;;;;;;14.55;6.93;;;19.00;46.50;;;;;;5063149;28;20044;-66
2021/01/30 12:09:02;;;;;;;15.38;7.43;;;19.00;46.40;;;;;;5063806;28;20039;-67
2021/01/30 12:11:28;;;;;;;19.05;7.20;;;19.10;46.30;;;;;;5065518;28;20029;-67
2021/01/30 12:13:54;;;;;;;17.20;7.40;;;19.10;46.40;;;;;;5068402;28;20166;-65
2021/01/30 12:16:24;;;;;;;17.42;6.03;;;19.10;46.20;;;;;;5050178;28;20398;-66
2021/01/30 12:18:50;;;;;;;15.27;6.55;;;19.10;46.20;;;;;;5068095;28;20041;-67
2021/01/30 12:21:15;;;;;;;17.50;6.53;;;19.10;46.10;;;;;;5068290;28;20025;-67
2021/01/30 12:23:41;;;;;;;14.93;6.20;;;19.20;45.90;;;;;;5066675;28;20028;-66
2021/01/30 12:26:07;;;;;;;17.73;6.68;;;19.20;45.80;;;;;;5069831;28;20036;-66
2021/01/30 12:28:33;;;;;;;13.82;6.43;;;19.20;45.70;;;;;;5049438;28;20044;-67
2021/01/30 12:30:59;;;;;;;14.07;6.68;;;19.20;45.60;;;;;;5067343;28;20111;-66
2021/01/30 12:33:25;;;;;;;12.25;6.03;;;19.30;45.50;;;;;;5067176;28;20033;-67
2021/01/30 12:35:50;;;;;;;12.82;6.35;;;19.30;45.40;;;;;;5065795;28;20032;-66
2021/01/30 12:38:16;;;;;;;11.73;5.22;;;19.30;45.30;;;;;;5067253;28;20054;-66
2021/01/30 12:40:45;;;;;;;11.10;5.43;;;19.30;45.20;;;;;;5066400;28;20119;-66
2021/01/30 12:43:11;;;;;;;10.20;5.05;;;19.30;45.20;;;;;;5030071;28;20642;-66
2021/01/30 12:45:36;;;;;;;12.02;5.78;;;19.30;45.10;;;;;;5048428;28;20037;-66
2021/01/30 12:48:02;;;;;;;12.10;5.78;;;19.30;45.10;;;;;;5067291;28;20048;-66
2021/01/30 12:50:28;;;;;;;13.82;5.78;;;19.30;45.20;;;;;;5049389;28;20116;-67
2021/01/30 12:52:54;;;;;;;11.60;6.13;;;19.30;45.30;;;;;;5066730;28;20483;-67
2021/01/30 12:55:19;;;;;;;15.45;6.05;;;19.30;45.50;;;;;;5067065;28;20111;-68
2021/01/30 12:57:45;;;;;;;12.07;5.65;;;19.30;45.70;;;;;;5032580;28;20059;-66
2021/01/30 13:00:13;;;;;;;10.20;6.28;;;19.30;45.90;;;;;;5048552;28;20041;-66
2021/01/30 13:02:39;;;;;;;13.15;6.07;;;19.30;45.90;;;;;;5067030;28;20060;-66
2021/01/30 13:05:09;;;;;;;14.45;7.05;;;19.30;45.90;;;;;;5066404;28;20564;-67